Lebanon, Ohio
Current Conditions -  °F | °C
As of 6:53 AM on Monday 20 Oct 2014 (Local Time) from KMGY Reporting Station
Overcast Overcast  
Wind Chill: 42°   Ceiling: 10000
Heat Index: 46°   Visibility: 10mi
Dew Point: 43°   Wind: 7mph
Humidity: 89%   Direction: 200°SSW
Pressure: 29.99"   Gusts: NA
Location:  39.43°N, 84.21°W
Report Text: KMGY 201053Z AUTO 20006KT 10SM OVC100 08/06 A2999 RMK AO2 SLP158 T00780061
Loading
Personal Weather Stations






























Interactive Weather Map
Tropical Storm Tracking
New forecast layout! Learn more

10-Day Weather Forecast

Advertisements
Track Severe Weather on mobile